[Jeden Mittwoch | 1730z - 2030z | EDDM] München Mittwoch

Zu Eventkalender hinzugefügt: 59 Daten

Pascal Klamm

1451860
RG München - Event
Auch nach Ostern öffnen wir heute wie gewohnt den münchner Franz-Josef-Strauß-Flughafen zwischen 19:30 und 22:30 lcl für euch. Das Wetter spielt heute hervorragend gut mit: vorhergesagt sind CAVOK Bedingungen sowie ein leichter Ostwind. Unter diesen Voraussetzungen ist IFR- und VFR-Piloten einiges geboten. Also putzt eure Cockpitscheiben, tankt eure Maschinen voll und los geht’s nach München!

TAF:
EDDM 151100Z 1512/1618 09006KT CAVOK
BECMG 1518/1520 VRB01KT
BECMG 1608/1610 28006KT
 
Zuletzt bearbeitet:

Michael Wellner

1024937
RG München - Event
Wie jede Woche laden wir Euch auch heute wieder ein, beim München Mittwoch ab 1930lcl - also 1730z auf dem "Franz Josef Strauß" Airport Gast zu sein. Die Lotsen haben ihre Radarschirme geputzt und die Pisten wurden von den heftigen Winden der letzten Tage ordentlich gefegt.
In den letzten Tagen hat sich der Wind dann auch wieder etwas beruhigt und so steht einem entspannten Flug von oder nach München, egal ob mit Dick- oder Dünnblech, nichts mehr im Weg.

METAR:
EDDM 221050Z 07015KT 030V090 CAVOK 17/M01 Q1017 NOSIG

TAF:

TAF EDDM 220500Z 2206/2312 06010KT CAVOK
BECMG 2207/2209 08015G30KT
BECMG 2217/2219 06007KT




--

_________________VATSim-Germany / RG München / Event-Department
 
Zuletzt bearbeitet:

Samy Greve

874505
RG München - Event
RG München - NAV
RG München - Mentor
Auch heute erwarten wir euch wieder in München mit einer vollen ATC Abdeckung!

METAR:
EDDM 291050Z 25016KT 9999 -RA BKN015 BKN040 11/09 Q1010 NOSIG

TAF:
EDDM 290500Z 2906/3012 25010KT 9999 SCT010 BKN030 TEMPO 2906/2911 RA BKN008 BECMG 2918/2920 21005KT BECMG 2922/2924 VRB03KT BECMG 3008/3010 26007KT

Wir laden euch herzlich zum München Mittwoch von 1730z -2030z ein und freuen uns über euren Besuch!
 
Zuletzt bearbeitet:

Michael Wellner

1024937
RG München - Event
Es ist wieder soweit und die RG München lädt Euch wie immer herzlich zum München Mittwoch ab 1930lcl - also 1730z auf dem "Franz Josef Strauß" Airport ein. Die Mannschaft auf dem Turm ist startklar und hat extra für Euch bestes IFR-Wetter mit Sprühregen und Wolken bestellt. :ROFLMAO:
Und vielleicht bietet sich ja auch ein kurzer Abstecher nach Frankfurt (EDDF) an, um Felix Soest tatkräftig bei seinem CPT auf dem Frankfurter Approach zu unterstützen.
Natürlich sind auch die VFR-Piloten wieder herzlich gerne am Platz gesehen, und wenn es für die tollkühnen Helden in ihren fliegenden Kisten dann doch zu ungemütlich wird, gibt es ja immer noch den CAVOK-Knopf im Cockpit. ;)

METAR:
EDDM 131020Z 09005KT 060V120 9999 -RA FEW016 09/04 Q1012 NOSIG

TAF:
EDDM 130500Z 1306/1412 05005KT 9999 SCT040 TEMPO 1312/1320 RA BKN012 BECMG 1320/1322 35005KT BKN012 TEMPO 1400/1408 3000 RADZ BKN008 BECMG 1407/1409 05005KT BKN020


--

_________________VATSim-Germany / RG München / Event-Department
 
Zuletzt bearbeitet:

Michael Wellner

1024937
RG München - Event
Auch heute öffnet die RG München wie immer am München Mittwoch wieder ab 1930lcl - also 1730z den "Franz Josef Strauß" Airport und lädt alle Piloten herzlich zu einem Flug von oder nach München ein.
Wie wir aus gut unterrichteter Quelle erfahren haben, ist heute mit erhöhtem GA-Verkehr am Platz zu rechnen und die eine oder andere Information mit "light aircraft between the runways" oder "Cessna-172 north of the field" wäre dabei durchaus wahrscheinlich beim Anflug auf den Platz. Und für die VFR-Piloten verspricht das Wetter beste Bedingungen, um hervorragende Luftbildaufnahmen vom Platz zu bekommen, während man Vollkreise über dem Turm dreht.

METAR:
EDDM 200820Z 01003KT 320V060 CAVOK 16/10 Q1020 NOSIG

TAF:
EDDM 200500Z 2006/2112 03006KT 9999 SCT035 BECMG 2018/2020 VRB03KT BECMG 2106/2108 06005KT


--

_________________VATSim-Germany / RG München / Event-Department
 
Zuletzt bearbeitet:

Michael Wellner

1024937
RG München - Event
Es ist wieder Mittwoch und natürlich schließen die Controller der RG München auch heute wieder für Euch ab 1930lcl - also 1730z den Turm am "Franz Josef Strauß" Airport auf, um Euch herzlich zu einem Flug von oder nach München einzuladen.
Auch wenn die Wolken zum Abend hin ertwas zunehmen sollen, lässt sich vermutlich neben den IFR-An- und Abflügen auch durchaus die eine oder andere Platzrunde auch für die VFR-Piloten realisieren.

METAR:
EDDM 270950Z VRB05KT 9999 FEW043 17/05 Q1033 NOSIG

TAF:
EDDM 270500Z 2706/2812 VRB03KT CAVOK BECMG 2707/2709 07006KT BECMG 2717/2719 VRB03KT BECMG 2807/2809 35006KT PROB30 TEMPO 2809/2812 35013KT SHRA SCT012 BKN025TCU


--

_________________VATSim-Germany / RG München / Event-Department
 
Zuletzt bearbeitet:

Michael Wellner

1024937
RG München - Event
Es ist sind schon wieder 4 Wochen rum und erneut lädt Euch die RG München in Zusammenarbeit mit der RG Berlin auch heute am München-Mittwoch wieder ab 1930lcl - also 1730z zum München-Berlin-Shuttle ein. Sowohl am "Franz Josef Strauß" Airport in München als auch beim Flughafen Berlin-Tegel „Otto Lilienthal“ werdet ihr von einer motivierten Mannschaft von Controllern erwartet, die sich darauf freut, Euch besten Service an beide Plätzen zu bieten.
Und angesichts der bevorstehenden vorübergehenden Schließung des Berliner Traditionsflughafens am 15.06.2020 ist es vielleicht sogar die letzte Möglichkeit für ein solches Shuttle zwischen Bayern und Preußen. Also lasst Euch diese Chance auf einen historisch bedeutenden Flug nicht entgehen und macht Eure Maschinen startklar für dieses außerordentliche Event.
Und auch wenn zum Abend hin mit leichten Gewittern gerechnet werden muss, so sollten die Wolken doch noch ausreichend hoch hängen um auch für die VFR-Piloten einen Lokalflug rund um München zu ermöglichen.

METAR:
EDDM 030820Z 28005KT 240V350 CAVOK 21/08 Q1009 NOSIG

TAF:
EDDM 030500Z 0306/0412 23003KT CAVOK BECMG 0310/0312 29005KT PROB30 TEMPO 0314/0319 27020G35KT TSRA SCT065CB BECMG 0316/0318 VRB03KT BECMG 0406/0408 22006KT



--

_________________VATSim-Germany / RG München / Event-Department
 
Zuletzt bearbeitet:

Michael Wellner

1024937
RG München - Event
Auch heute lädt Euch die RG München am München-Mittwoch wieder ab 1930lcl - also 1730z zu einem Flug von oder zum "Franz Josef Strauß" Airport in München ein. Die Controller sind startklar - seid ihr es auch?
Heute bietet sich die gute Gelegenheit mal einen Anflug unter ungünstigen Sichtverhältnissen zu fliegen, denn die Wolken lassen heute Abend vermutlich kaum eine Sicht auf den Platz zu. Also schaut mal, ob ihr die Piste entdeckt, bevor ihr die Meldung "Minimums" von Eurem Autopiloten bekommt. Und falls sich doch ein VFR-Pilot an den Platz wagt, so sollte er auf alle Fälle ein klein wenig am Wetter drehen und die Wolken etwas nach oben schubsen.

METAR:
EDDM 100850Z VRB02KT 9999 BKN008 13/12 Q1012 BECMG BKN010

TAF:
EDDM 100500Z 1006/1112 35005KT 7000 OVC007 PROB30 TEMPO 1006/1007 4000 BR OVC004 BECMG 1008/1010 BKN012 TEMPO 1011/1015 BKN015 BECMG 1019/1022 VRB03KT OVC006 TEMPO 1022/1106 3000 -DZ BR OVC003 BECMG 1107/1109 SCT009 BKN020



--

_________________VATSim-Germany / RG München / Event-Department
 
Zuletzt bearbeitet:

Michael Wellner

1024937
RG München - Event
Es ist wieder Mittwoch und wie jede Woche lädt Euch die RG München am München-Mittwoch wieder ab 1930lcl - also 1730z zu einem Flug von oder zum "Franz Josef Strauß" Airport in München ein. Nach den Events der letzten Wochen sind die Controller bestens in Übung auch mit viel Verkehr am Platz umgehen zu können, also holt alles was mindestens zwei Flügel hat aus Eurem Hangar und besucht uns in München.
Leider werden auch heute wieder die Wolken keine VMC anzubieten haben und der vorausgesagte Wind in den frühen Abendstunden von 20kt - in Böen 35kt - könnte selbst für das eine oder andere Dickblech durchaus mal eine Überraschung darstellen. Rechtzeitig zum Beginn des Events sollte sich dieser aber schon wieder etwas gelegt haben, auch wenn er dafür von Regenschauern abgelöst wird.

METAR:
EDDM 170750Z VRB02KT 9999 FEW007 17/15 Q1011 NOSIG

TAF:
EDDM 170500Z 1706/1812 08004KT 4000 BR NSC BECMG 1706/1708 9999 PROB30 TEMPO 1707/1710 BKN012 PROB30 TEMPO 1713/1719 09020G35KT 4000 TSRA BKN025CB BECMG 1717/1719 25009KT TEMPO 1719/1724 4000 SHRA BKN012CB TEMPO 1800/1805 RA BKN012



--

_________________VATSim-Germany / RG München / Event-Department
 
Zuletzt bearbeitet:

Michael Wellner

1024937
RG München - Event
Die RG München lädt alle Piloten auch heute am München-Mittwoch wieder ab 1930lcl - also 1730z zu einem Flug von oder zum "Franz Josef Strauß" Airport in München ein.
Bei wolkenfreiem Himmel und moderatem Wind bietet das Wetter heute beste Sichtflugbedingungen und so muss am und um den Airport vermutlich mit einer Menge Dünnblech gerechnet werden, zumal auch die VFR-Landpartie heute einen Abstecher nach München machen wird.

METAR:
EDDM 240950Z 05007KT 360V080 9999 FEW045 22/11 Q1023 NOSIG

TAF:
EDDM 240500Z 2406/2512 07009KT CAVOK BECMG 2418/2420 05004KT



--

_________________VATSim-Germany / RG München / Event-Department
 
Zuletzt bearbeitet:

Michael Wellner

1024937
RG München - Event
Auch diese Woche lädt die RG München wieder alle Piloten am München-Mittwoch ab 1930lcl - also 1730z auf den "Franz Josef Strauß" Airport nach München ein.
Nachdem uns letzte Woche dort die FriesenFliegerFormation besucht hat, sind wir gespannt, womit ihr die Controller diese Woche überraschen werdet. Für eine hochkarätige Besetzunmg der Stationen ist jedenfalls bereits gesorgt.
Auch wenn das Wetter derzeit noch gute Sichtflugbedingungen aufweist, muss leider zum Abend hin mit Wolkenbildung, Gewitter und starkem Wind gerechnet werden. Alles in allem wohl eher Dickblechwetter für unsere IFR-Piloten.

METAR:
EDDM 010950Z VRB03KT 9999 FEW036 25/17 Q1012 NOSIG

TAF:
EDDM 010500Z 0106/0212 VRB03KT CAVOK BECMG 0108/0110 24005KT PROB40 TEMPO 0121/0204 25020G35KT TSRA FEW012 BKN020CB PROB30 TEMPO 0210/0212 30020G35KT TSRA BKN015CB



--

_________________VATSim-Germany / RG München / Event-Department
 
Zuletzt bearbeitet:

Michael Wellner

1024937
RG München - Event
Die RG München lädt auch heute wieder alle Piloten am München-Mittwoch ab 1930lcl - also 1730z auf den "Franz Josef Strauß" Airport nach München ein.
Nachdem die Piloten letzte Woche doch mit den Wetterbedingungen etwas zu kämpfen hatten, verspricht der Wetterbericht für heute eine optimales Flugwetter für alle Maschinen, egal ob Dick- oder Dünnblech. Also nutzt die Gelegenheit und sorgt für reichlich Verkehr am größten Verkehrsflughafen im Süden Deutschlands.

METAR:
EDDM 080950Z 26011KT 230V310 CAVOK 21/09 Q1018 NOSIG

TAF:
EDDM 080500Z 0806/0912 VRB03KT 9999 SCT045 BECMG 0806/0808 27009KT BECMG 0817/0819 VRB03KT BECMG 0906/0908 25008KT



--

_________________VATSim-Germany / RG München / Event-Department
 
Zuletzt bearbeitet:

Samy Greve

874505
RG München - Event
RG München - NAV
RG München - Mentor


Auch heute Abend laden wir wieder alle Piloten am München-Mittwoch ab 1930lcl - also 1730z auf den "Franz Josef Strauß" Airport nach München ein.
Es sieht nach einem ruhigen Flugtag aus, wobei zum Abend nochmal der Wind deutlich zunehmen könnte. Am Ende des Tages ist es aber egal, denn die ATC Crew freut sich auf euren Besuch und der Airport ist wieder 1A besetzt! Also nutzt die Gelegenheit und sorgt für reichlich Verkehr am größten Verkehrsflughafen im Süden Deutschlands.

METAR:
EDDM 150820Z 26004KT CAVOK 18/12 Q1014 NOSIG

TAF:
EDDM 150500Z 1506/1612 VRB02KT 9999 FEW020 BECMG 1507/1509 27006KT PROB40 TEMPO 1512/1519 29015G25KT TSRA SCT012 BKN020CB
 
Zuletzt bearbeitet:

Samy Greve

874505
RG München - Event
RG München - NAV
RG München - Mentor


Es ist schon wieder Mittwoch und das bedeutet "München Mittwoch" - Der Sommer lässt ja irgendwie mancherorts auf sich warten, sodass sich ein virtueller Besuch nach München immer lohnt. Die ATC Crew ist ready und wartet heute Abend auf euch. Die letzte Woche hat gezeigt, dass sie auch mit viel Verkehr umgehen können. Das Wetter schiebt dazu eine ruhige Kugel!

Achja: Pascal will heute Abend bei seinem Tower CPT die Prüfer von seinem Können zu überzeugen. Also kommt vorbei!

METAR:
EDDM 220950Z VRB04KT CAVOK 22/11 Q1022 NOSIG

TAF:
EDDM 220500Z 2206/2312 30004KT CAVOK
 

Lars Bergmann

1357290
VATGER - Leitung
ATD - Leitung
RG Bremen - Mentor
ATD - Prüfer
Leider hast es heute nicht für ein Passed gereicht. Wir Prüfer sind uns aber sicher, dass Pascal beim nächsten Mal eine saubere Leistung zeigen und sein S2-Rating erhalten kann :)
 

Pascal Klamm

1451860
RG München - Event


Gleich ist es wieder soweit! Von 1930lcl bis 2230lcl wird der münchener Franz-Josef-Strauß Flughafen für euch besetzt sein. Das Wetter ist ideal für einen IFR- oder VFR-Flug von oder nach München. Wie immer freuen wir uns schon auf euch!

METAR:
EDDM 291520Z 29004KT 240V350 CAVOK 26/12 Q1019 NOSIG
TAF:
EDDM 291100Z 2912/3018 29005KT CAVOK
BECMG 2917/2919 VRB01KT
BECMG 3007/3009 05005KT
BECMG 3012/3014 34005KT
 

Samy Greve

874505
RG München - Event
RG München - NAV
RG München - Mentor

Obwohl der Sommer sich austobt, werden wir heute Abend in München mit einer fast Eventbesetzung auf euch warten und freuen uns auf euren Besuch :D

Von Delivery bis Center ist fast alles zweimal vertreten:cool:

TAF: EDDM 051100Z 0512/0618 09007KT CAVOK BECMG 0517/0519 VRB02KT PROB30 TEMPO 0602/0606 2000 BCFG BECMG 0606/0608 08007KT
 

Samy Greve

874505
RG München - Event
RG München - NAV
RG München - Mentor


Waaas schon wieder Mittwoch?! Ja richtig! Und das bedeutet wieder München Mittwoch :D
Letzte Woche war schon Rekordverdächtig und das trotz Hochsommer! Schaffen wir das heute Abend wieder?!

Wie auch immer: Die ATC Crew ist heute Abend wieder für euch da und besetzt den Airport mit fast 10 ATC Positionen.

Wir sehen uns heute Abend :cool:
 
Oben